Cincinnati, OH

9:24 PM EDT on September 15, 2014 (GMT -0400)
Mount Lookout | Change Station
CLOSE
Current Station
Personal Weather Station
Location: Cincinnati, OH
Elevation: 650 ft
Nearby Weather Stations

Elev 650 ft 39.12 °N, 84.42 °W | Updated 14 minutes ago

Rain
Rain
59.8 °F
Feels Like 59.8 °F
N
0.0
Wind Variable Wind from NW
Gusts 2.0 mph

Today
High -- | Low -- °F
--% Chance of Precip.
Yesterday
High -- | Low -- °F
Precip. -- in
7:18 AM 7:46 PM
Waning Gibbous, 50% visible
Pressure 30.10 in
Visibility 10.0 miles
Clouds Scattered Clouds 4200 ft
Mostly Cloudy 4900 ft
Mostly Cloudy 10000 ft
Dew Point 58 °F
Humidity 94%
Rainfall 0.11 in
Snow Depth Not available.
UV 0 out of 12
Pollen 5.00 out of 12
Ozone Good
PM2.5 Moderate
Flu Activity Not available.
METAR KLUK 160053Z 27006KT 10SM SCT042 BKN049 BKN100 16/14 A3010 RMK AO2 RAE53 SLP192 P0007 T01610139

More Conditions Fewer Conditions

Pressure 30.10 in
Visibility 10.0 miles
Clouds Scattered Clouds 4200 ft
Mostly Cloudy 4900 ft
Mostly Cloudy 10000 ft
Dew Point 58 °F
Humidity 94%
Rainfall 0.11 in
Snow Depth Not available.
UV 0 out of 12
Pollen 5.00 out of 12
Ozone Good
PM2.5 Moderate
Flu Activity Not available.
METAR KLUK 160053Z 27006KT 10SM SCT042 BKN049 BKN100 16/14 A3010 RMK AO2 RAE53 SLP192 P0007 T01610139

More Conditions Fewer Conditions

10-Day Weather Forecast

Almanac

Astronomy

Sep. 15, 2014 Rise Set
Actual Time 7:18 AM EDT 7:46 PM EDT
Civil Twilight 6:52 AM EDT 8:12 PM EDT
Nautical Twilight 6:20 AM EDT 8:44 PM EDT
Astronomical Twilight 5:48 AM EDT 9:16 PM EDT
Moon No Moon Rise 2:15 PM EDT (9/15)
Length of Visible Light 13h 20m
Length of Day
12h 27m
Tomorrow will be 2m 31s shorter.
Waning Gibbous, 50% of the Moon is Illuminated
Today
Waning Gibbous
Sep 15
Last Quarter
Sep 24
New
Oct 1
First Quarter
Oct 8
Full

Today's Extremes

State Highs State Lows

Community

WunderPhotos

Upload Photos

1,753,645 photos uploaded!

WunderBlogs® & News

Nearby

Air Quality

  Air Quality AQ Index Pollutant
Yesterday Good
PM10
Yesterday Good
OZONE
Current Moderate
PM2.5
Current Good
OZONE
Monday Good
OZONE
Monday Good
PM2.5
Tuesday Good
PM2.5
Tuesday Good
OZONE

Snow Depth

Station Depth Elevation
No new snow has been reported.

Earthquake Activity

City Distance Mag. Time & Date
No recent earthquake activity has been reported nearby.
Minimum magnitude displayed is 2.5.

Coastal Water Temperatures

Place Temperature
No Stations Reporting

Nearby Weather Stations